Flight Track Log - Related Links

Times and Time Zones

All times are in EST time to prevent confusion due to time zone crossing. See the MDS211 flight status page for this flight to view local times or setup timezone preferences in your user account.

Time Position Orientation Groundspeed Altitude Reporting Facility
EST Latitude Longitude Course Direction KTS MPH feet Rate Location/Type
Wed 08:27:31 AM 32.6189 -104.6117 236° Southwest 223 257 16,000  Level Albuquerque Center
Wed 08:28:32 AM 32.5892 -104.6742 241° Southwest 219 252 16,000  Level Albuquerque Center
Wed 08:29:32 AM 32.5556 -104.7331 236° Southwest 216 249 16,000  Level Albuquerque Center
Wed 08:30:32 AM 32.5192 -104.7931 234° Southwest 221 254 16,000  Level Albuquerque Center
Wed 08:31:33 AM 32.4819 -104.8514 233° Southwest 223 257 16,000  Level Albuquerque Center
Wed 08:32:33 AM 32.4458 -104.9108 234° Southwest 222 255 16,000 -50 Level Albuquerque Center
Wed 08:33:00 AM 32.3638 -105.1339 236° Southwest  Level FlightAware Approximate
Wed 08:33:34 AM 32.4161 -104.9669 238° Southwest 223 257 15,900  Level Albuquerque Center
Wed 08:34:34 AM 32.3861 -105.0342 242° Southwest 229 264 15,900  Level Albuquerque Center
Wed 08:35:35 AM 32.3592 -105.0981 243° Southwest 221 254 15,900  Level Albuquerque Center
Wed 08:36:35 AM 32.3297 -105.1617 241° Southwest 221 254 15,900  Level Albuquerque Center
Wed 08:37:36 AM 32.2969 -105.2233 238° Southwest 221 254 15,900  Level Albuquerque Center
Wed 08:38:36 AM 32.2600 -105.2819 233° Southwest 223 257 15,900 -248 Level Albuquerque Center
Wed 08:39:37 AM 32.2147 -105.3553 234° Southwest 227 261 15,400 -923 Descending Albuquerque Center
Wed 08:40:33 AM 32.1736 -105.4186 233° Southwest 249 287 14,100 -1,400 Descending Albuquerque Center
Wed 08:40:37 AM 32.1750 -105.4219 296° West 241 277 14,000 -982 Descending Albuquerque Center
Wed 08:41:28 AM 32.1422 -105.4794 236° Southwest 261 300 13,200 -885 Descending Albuquerque Center
Wed 08:41:38 AM 32.1392 -105.4939 256° West 252 290 13,100 -429 Descending Albuquerque Center
Wed 08:42:38 AM 32.1097 -105.5647 244° Southwest 243 280 12,700 -397 Descending Albuquerque Center
Wed 08:43:39 AM 32.0797 -105.6311 242° Southwest 233 268 12,300 -750 Descending Albuquerque Center
Wed 08:44:30 AM 32.0450 -105.6903 235° Southwest 245 282 11,300 -1,180 Descending Albuquerque Center
Wed 08:44:40 AM 32.0417 -105.6969 239° Southwest 242 278 11,100 -689 Descending Albuquerque Center
Wed 08:45:31 AM 32.0022 -105.7592 233° Southwest 260 299 10,600 -600 Descending Albuquerque Center
Wed 08:45:40 AM 31.9983 -105.7642 227° Southwest 255 293 10,500 -200 Descending Albuquerque Center
Wed 08:46:31 AM 31.9636 -105.8267 237° Southwest 250 288 10,400 -197 Descending Albuquerque Center
Wed 08:46:41 AM 31.9597 -105.8319 229° Southwest 251 289 10,300 -787 Descending Albuquerque Center
Wed 08:47:32 AM 31.9342 -105.8992 246° West 252 290 9,600 -800 Descending Albuquerque Center
Wed 08:47:41 AM 31.9319 -105.9069 251° West 251 289 9,500 -590 Descending Albuquerque Center
Wed 08:48:33 AM 31.9108 -105.9803 251° West 265 305 9,000 -590 Descending Albuquerque Center
Wed 08:48:42 AM 31.9100 -105.9847 258° West 262 302 8,900 -500 Descending Albuquerque Center
Wed 08:49:33 AM 31.8958 -106.0617 258° West 255 293 8,500 -500 Descending Albuquerque Center
Wed 08:49:42 AM 31.8961 -106.0694 272° West 254 292 8,400 -984 Descending Albuquerque Center
Wed 08:50:34 AM 31.8831 -106.1550 260° West 266 306 7,500 -885 Descending Albuquerque Center
Wed 08:50:43 AM 31.8828 -106.1544 120° Southeast 263 303 7,500 -716 Level Albuquerque Center
Wed 08:51:41 AM 31.8458 -106.2319 241° Southwest 256 295 6,700 -787 Descending Albuquerque Center
Wed 08:51:44 AM 31.8497 -106.2275 44° Northeast 260 299 6,700 -1,111 Level Albuquerque Center
Wed 08:52:35 AM 31.8142 -106.2800 231° Southwest 192 221 5,700 -1,100 Descending Albuquerque Center
Wed 08:52:44 AM 31.8133 -106.2800 180° South 213 245 5,600 -1,082 Descending Albuquerque Center
Wed 08:53:36 AM 31.7994 -106.3286 251° West 147 169 4,600 -984 Descending Albuquerque Center
Wed 08:53:45 AM 31.7983 -106.3294 213° Southwest 167 192 4,600 -522 Level Albuquerque Center
Wed 08:54:45 AM 31.8014 -106.3669 275° West 126 145 4,000 -600 Descending Albuquerque Center
Wed 08:56:00 AM 31.8000 -106.3667 270° West  Level FlightAware Approximate
Wed 09:03:00 AM 31.8072 -106.3764 270° West  Level Estimated
Wed 09:04:00 AM 31.8072 -106.3764 270° West  Level Estimated
Wed 09:05:00 AM 31.8072 -106.3764 270° West  Level Estimated
Wed 09:06:00 AM 31.8072 -106.3764 270° West  Level Estimated

Login

Don't have an account? Register now (free) for customized features, flight alerts, and more!